Terminal Aerodrome Forecast
Issued by NWS

Home | Current Version | Previous Version | Text Only | Print | Product List | Glossary On
Versions: 1 2 3 4 5 6 7 8 9 10 11 12 13 14 15 16 17 18 19 20 21 22 23 24 25
000
FTUS43 KDVN 020600 AAA
TAFBRL
TAF AMD
KBRL 020648Z 0207/0306 19008KT 5SM BR SCT007 OVC040
      TEMPO 0207/0208 3SM -RA BR BKN007 OVC030
     FM020800 18005KT 3SM BR BKN007 OVC030
     FM021200 10003KT 2SM BR VCSH OVC009 PROB30 0216/0218 1SM -TSRA
      BR SCT009CB OVC020
     FM021800 15006KT 4SM -SHRA BR VCTS SCT020CB BKN035 PROB30
      0219/0301 3SM TSRA BR BKN015CB OVC025
     FM030100 31010KT P6SM OVC012=

USA.gov is the U.S. government's official web portal to all federal, state and local government web resources and services.